臺北飛航情報區 - 掃描席(區管/近場)

METAR RCTP 252030Z 16005KT 9999 FEW012 25/22 Q1009 NOSIG RMK A2981=

站台狀態:Online
最後更新:2019-05-26 04:45:03